createdAt,value
2018-11-27T00:00:46.548Z,93.00
2018-11-27T00:03:55.094Z,93.30
2018-11-27T00:07:05.266Z,93.10
2018-11-27T00:10:09.721Z,92.80
2018-11-27T00:13:13.013Z,93.20
2018-11-27T00:16:16.264Z,93.10
2018-11-27T00:19:19.588Z,92.80
2018-11-27T00:22:22.880Z,92.70
2018-11-27T00:25:26.193Z,92.80
2018-11-27T00:28:29.481Z,93.00
2018-11-27T00:31:32.762Z,93.50
2018-11-27T00:34:36.081Z,93.30
2018-11-27T00:37:39.401Z,93.20
2018-11-27T00:40:42.701Z,93.50
2018-11-27T00:43:45.973Z,93.60
2018-11-27T00:46:49.289Z,93.20
2018-11-27T00:49:52.816Z,93.60
2018-11-27T00:52:56.141Z,94.00
2018-11-27T00:55:59.541Z,93.60
2018-11-27T00:59:02.814Z,93.40
2018-11-27T01:02:06.388Z,93.00
2018-11-27T01:05:11.966Z,93.40
2018-11-27T01:08:15.305Z,92.90
2018-11-27T01:11:18.620Z,93.20
2018-11-27T01:14:21.917Z,93.30
2018-11-27T01:17:25.176Z,93.10
2018-11-27T01:20:28.894Z,93.20
2018-11-27T01:23:32.169Z,93.20
2018-11-27T01:26:35.458Z,93.20
2018-11-27T01:29:38.745Z,93.20
2018-11-27T01:32:42.104Z,92.90
2018-11-27T01:35:45.390Z,92.80
2018-11-27T01:38:48.692Z,92.80
2018-11-27T01:41:52.052Z,92.90
2018-11-27T01:44:55.337Z,92.80
2018-11-27T01:47:58.633Z,93.30
2018-11-27T01:51:01.981Z,93.10
2018-11-27T01:54:05.659Z,93.10
2018-11-27T01:57:08.950Z,93.10
2018-11-27T02:00:21.052Z,93.00
2018-11-27T02:03:39.264Z,93.30
2018-11-27T02:06:42.554Z,93.10
2018-11-27T02:09:45.830Z,92.90
2018-11-27T02:12:50.518Z,93.40
2018-11-27T02:15:53.810Z,93.10
2018-11-27T02:18:57.077Z,93.10
2018-11-27T02:22:00.398Z,93.30
2018-11-27T02:25:05.774Z,92.80
2018-11-27T02:28:09.093Z,93.10
2018-11-27T02:31:12.391Z,93.10
2018-11-27T02:34:15.650Z,92.60
2018-11-27T02:37:18.993Z,92.20
2018-11-27T02:40:22.358Z,92.50
2018-11-27T02:43:25.637Z,92.70
2018-11-27T02:46:28.920Z,92.80
2018-11-27T02:49:32.211Z,92.80
2018-11-27T02:52:35.545Z,92.70
2018-11-27T02:55:38.831Z,92.30
2018-11-27T02:58:42.156Z,92.20
2018-11-27T03:01:45.437Z,92.10
2018-11-27T03:04:48.721Z,91.90
2018-11-27T03:07:52.009Z,92.20
2018-11-27T03:10:55.274Z,92.30
2018-11-27T03:13:58.553Z,92.80
2018-11-27T03:17:01.921Z,92.50
2018-11-27T03:20:07.891Z,92.30
2018-11-27T03:23:11.201Z,92.20
2018-11-27T03:26:14.485Z,92.60
2018-11-27T03:29:17.769Z,92.90
2018-11-27T03:32:21.063Z,92.70
2018-11-27T03:35:25.213Z,92.60
2018-11-27T03:38:28.596Z,92.80
2018-11-27T03:41:31.929Z,92.70
2018-11-27T03:44:35.229Z,92.40
2018-11-27T03:47:38.637Z,92.50
2018-11-27T03:50:41.933Z,92.60
2018-11-27T03:53:46.023Z,92.50
2018-11-27T03:56:49.289Z,92.60
2018-11-27T03:59:52.585Z,92.80
2018-11-27T04:03:06.915Z,92.30
2018-11-27T04:06:10.194Z,92.00
2018-11-27T04:09:13.526Z,92.50
2018-11-27T04:12:16.835Z,92.00
2018-11-27T04:15:20.191Z,92.50
2018-11-27T04:18:23.470Z,92.50
2018-11-27T04:21:26.802Z,92.60
2018-11-27T04:24:30.109Z,92.80
2018-11-27T04:27:33.387Z,92.50
2018-11-27T04:30:36.693Z,92.70
2018-11-27T04:33:40.009Z,92.60
2018-11-27T04:36:43.294Z,92.50
2018-11-27T04:39:46.579Z,92.70
2018-11-27T04:42:49.862Z,92.80
2018-11-27T04:45:53.189Z,93.00
2018-11-27T04:48:56.490Z,93.00
2018-11-27T04:51:59.777Z,92.80
2018-11-27T04:55:03.235Z,92.60
2018-11-27T04:58:06.574Z,92.80
2018-11-27T05:01:09.902Z,92.90
2018-11-27T05:04:13.245Z,92.70
2018-11-27T05:07:16.542Z,92.90
2018-11-27T05:10:22.328Z,93.20
2018-11-27T05:13:25.572Z,93.00
2018-11-27T05:16:28.852Z,93.10
2018-11-27T05:19:32.109Z,93.30
2018-11-27T05:22:35.773Z,93.70
2018-11-27T05:25:39.091Z,93.40
2018-11-27T05:28:42.352Z,93.50
2018-11-27T05:31:45.646Z,93.60
2018-11-27T05:34:48.912Z,93.60
2018-11-27T05:37:52.225Z,93.80
2018-11-27T05:40:55.480Z,93.70
2018-11-27T05:43:58.780Z,93.90
2018-11-27T05:47:02.153Z,94.00
2018-11-27T05:50:08.629Z,93.50
2018-11-27T05:53:11.937Z,93.40
2018-11-27T05:56:15.236Z,93.40
2018-11-27T05:59:18.550Z,93.60
2018-11-27T06:02:21.833Z,93.20
2018-11-27T06:05:25.333Z,93.30
2018-11-27T06:08:28.612Z,93.10
2018-11-27T06:11:31.930Z,93.00
2018-11-27T06:14:35.237Z,93.50
2018-11-27T06:17:38.541Z,93.40
2018-11-27T06:20:41.861Z,93.60
2018-11-27T06:23:45.129Z,93.60
2018-11-27T06:26:48.469Z,93.40
2018-11-27T06:29:51.770Z,93.70
2018-11-27T06:32:55.077Z,93.50
2018-11-27T06:35:58.345Z,93.70
2018-11-27T06:39:01.621Z,94.00
2018-11-27T06:42:05.161Z,93.90
2018-11-27T06:45:11.414Z,93.60
2018-11-27T06:48:14.717Z,94.00
2018-11-27T06:51:18.033Z,93.90
2018-11-27T06:54:21.346Z,94.30
2018-11-27T06:57:24.693Z,94.20
2018-11-27T07:00:28.736Z,94.20
2018-11-27T07:03:32.080Z,94.40
2018-11-27T07:06:35.453Z,94.40
2018-11-27T07:09:38.737Z,94.40
2018-11-27T07:12:42.030Z,94.70
2018-11-27T07:15:45.572Z,94.20
2018-11-27T07:18:49.608Z,94.40
2018-11-27T07:21:52.206Z,94.50
2018-11-27T07:24:55.499Z,94.70
2018-11-27T07:27:58.868Z,94.40
2018-11-27T07:31:02.213Z,94.60
2018-11-27T07:34:05.816Z,94.70
2018-11-27T07:37:09.084Z,94.80
2018-11-27T07:40:18.124Z,94.50
2018-11-27T07:43:21.431Z,94.70
2018-11-27T07:46:24.727Z,94.90
2018-11-27T07:49:28.024Z,94.70
2018-11-27T07:52:31.320Z,95.80
2018-11-27T07:55:34.661Z,94.30
2018-11-27T07:58:38.090Z,94.10
2018-11-27T08:01:41.360Z,94.20
2018-11-27T08:04:44.705Z,94.60
2018-11-27T08:07:51.444Z,94.80
2018-11-27T08:10:54.875Z,94.70
2018-11-27T08:13:58.230Z,94.70
2018-11-27T08:17:01.532Z,94.90
2018-11-27T08:20:06.523Z,95.00
2018-11-27T08:23:11.006Z,94.90
2018-11-27T08:26:14.360Z,95.10
2018-11-27T08:29:17.725Z,95.10
2018-11-27T08:32:20.993Z,95.10
2018-11-27T08:35:27.210Z,94.80
2018-11-27T08:38:30.513Z,94.70
2018-11-27T08:41:40.357Z,94.70
2018-11-27T08:44:37.221Z,94.50
2018-11-27T08:47:40.616Z,94.80
2018-11-27T08:50:43.957Z,95.00
2018-11-27T08:53:47.260Z,95.00
2018-11-27T08:56:50.655Z,95.00
2018-11-27T08:59:54.681Z,95.20
2018-11-27T09:02:58.013Z,95.00
2018-11-27T09:06:01.341Z,95.10
2018-11-27T09:09:09.071Z,95.40
2018-11-27T09:12:12.412Z,94.90
2018-11-27T09:15:17.328Z,94.30
2018-11-27T09:18:24.800Z,94.60
2018-11-27T09:21:28.108Z,95.10
2018-11-27T09:24:31.464Z,95.40
2018-11-27T09:27:34.761Z,95.30
2018-11-27T09:30:38.161Z,95.20
2018-11-27T09:33:41.460Z,95.00
2018-11-27T09:36:44.790Z,94.70
2018-11-27T09:39:48.136Z,95.00
2018-11-27T09:42:51.521Z,95.00
2018-11-27T09:45:54.850Z,94.40
2018-11-27T09:48:58.132Z,94.70
2018-11-27T09:52:01.429Z,94.30
2018-11-27T09:55:08.509Z,94.30
2018-11-27T09:58:11.887Z,94.00
2018-11-27T10:01:15.204Z,93.60
2018-11-27T10:04:18.519Z,94.20
2018-11-27T10:07:21.827Z,94.00
2018-11-27T10:10:25.641Z,93.70
2018-11-27T10:13:28.977Z,94.00
2018-11-27T10:16:32.285Z,93.70
2018-11-27T10:19:35.589Z,93.80
2018-11-27T10:22:38.933Z,94.20
2018-11-27T10:25:42.256Z,94.00
2018-11-27T10:28:45.589Z,93.70
2018-11-27T10:31:48.941Z,94.10
2018-11-27T10:34:52.265Z,94.20
2018-11-27T10:37:55.603Z,94.00
2018-11-27T10:40:58.902Z,93.20
2018-11-27T10:44:02.249Z,93.60
2018-11-27T10:47:05.720Z,93.40
2018-11-27T10:50:11.577Z,92.80
2018-11-27T10:53:14.915Z,92.90
2018-11-27T10:56:18.192Z,92.60
2018-11-27T10:59:21.525Z,92.80
2018-11-27T11:02:31.239Z,93.40
2018-11-27T11:05:35.803Z,93.10
2018-11-27T11:08:39.129Z,92.50
2018-11-27T11:11:42.437Z,92.40
2018-11-27T11:14:45.769Z,92.80
2018-11-27T11:17:49.129Z,92.60
2018-11-27T11:20:52.443Z,92.90
2018-11-27T11:23:56.369Z,92.20
2018-11-27T11:26:59.701Z,92.00
2018-11-27T11:30:03.533Z,92.10
2018-11-27T11:33:08.346Z,92.60
2018-11-27T11:36:11.633Z,91.60
2018-11-27T11:39:14.984Z,91.90
2018-11-27T11:42:18.298Z,91.50
2018-11-27T11:45:21.632Z,91.50
2018-11-27T11:48:24.959Z,91.40
2018-11-27T11:51:28.277Z,90.70
2018-11-27T11:54:31.628Z,89.20
2018-11-27T11:57:34.942Z,90.70
2018-11-27T12:00:42.702Z,90.30
2018-11-27T12:03:46.044Z,90.20
2018-11-27T12:06:49.316Z,90.20
2018-11-27T12:09:52.660Z,90.30
2018-11-27T12:12:55.981Z,88.50
2018-11-27T12:15:59.289Z,88.70
2018-11-27T12:19:03.257Z,90.20
2018-11-27T12:22:06.696Z,90.00
2018-11-27T12:25:11.627Z,87.30
2018-11-27T12:28:15.200Z,88.20
2018-11-27T12:31:18.273Z,88.10
2018-11-27T12:34:21.613Z,86.20
2018-11-27T12:37:25.042Z,87.90
2018-11-27T12:40:28.844Z,88.10
2018-11-27T12:43:32.897Z,87.60
2018-11-27T12:46:36.217Z,86.70
2018-11-27T12:49:39.542Z,87.70
2018-11-27T12:52:42.943Z,89.80
2018-11-27T12:55:48.870Z,86.60
2018-11-27T12:58:52.169Z,87.50
2018-11-27T13:01:55.493Z,87.50
2018-11-27T13:04:58.817Z,88.30
2018-11-27T13:08:04.108Z,88.20
2018-11-27T13:11:11.540Z,86.40
2018-11-27T13:14:10.784Z,86.00
2018-11-27T13:17:14.120Z,87.90
2018-11-27T13:20:18.597Z,88.20
2018-11-27T13:23:21.933Z,88.40
2018-11-27T13:26:25.283Z,85.50
2018-11-27T13:29:28.596Z,85.60
2018-11-27T13:32:32.034Z,86.20
2018-11-27T13:35:36.117Z,86.30
2018-11-27T13:38:39.693Z,88.00
2018-11-27T13:41:43.113Z,87.10
2018-11-27T13:44:46.525Z,86.60
2018-11-27T13:47:49.847Z,87.60
2018-11-27T13:50:53.173Z,87.30
2018-11-27T13:53:56.505Z,88.70
2018-11-27T13:56:59.836Z,90.00
2018-11-27T14:00:03.597Z,88.20
2018-11-27T14:03:10.771Z,86.70
2018-11-27T14:06:10.774Z,89.80
2018-11-27T14:09:14.084Z,88.80
2018-11-27T14:12:17.413Z,87.50
2018-11-27T14:15:24.352Z,89.70
2018-11-27T14:18:27.215Z,88.00
2018-11-27T14:21:30.523Z,86.30
2018-11-27T14:24:33.868Z,87.90
2018-11-27T14:27:37.237Z,88.80
2018-11-27T14:30:40.706Z,89.80
2018-11-27T14:33:44.072Z,88.70
2018-11-27T14:36:47.774Z,88.70
2018-11-27T14:39:51.091Z,89.00
2018-11-27T14:42:54.493Z,89.10
2018-11-27T14:45:58.767Z,88.70
2018-11-27T14:49:02.870Z,88.90
2018-11-27T14:52:06.264Z,87.80
2018-11-27T14:55:11.779Z,89.50
2018-11-27T14:58:15.236Z,84.90
2018-11-27T15:01:18.435Z,87.50
2018-11-27T15:04:21.865Z,89.20
2018-11-27T15:07:25.846Z,90.40
2018-11-27T15:10:29.235Z,90.80
2018-11-27T15:13:35.543Z,90.60
2018-11-27T15:16:38.865Z,90.50
2018-11-27T15:19:42.248Z,90.20
2018-11-27T15:22:45.763Z,91.60
2018-11-27T15:25:49.180Z,92.00
2018-11-27T15:28:52.503Z,88.10
2018-11-27T15:31:55.868Z,87.70
2018-11-27T15:34:59.225Z,90.60
2018-11-27T15:38:02.597Z,90.60
2018-11-27T15:41:06.533Z,90.80
2018-11-27T15:44:09.919Z,91.50
2018-11-27T15:47:13.261Z,91.80
2018-11-27T15:50:16.593Z,91.90
2018-11-27T15:53:19.916Z,92.00
2018-11-27T15:56:23.268Z,91.60
2018-11-27T15:59:26.596Z,91.80
2018-11-27T16:02:29.897Z,92.00
2018-11-27T16:05:33.257Z,91.00
2018-11-27T16:08:36.624Z,91.20
2018-11-27T16:11:39.976Z,91.50
2018-11-27T16:14:43.272Z,92.00
2018-11-27T16:17:47.292Z,92.20
2018-11-27T16:20:50.616Z,92.20
2018-11-27T16:23:53.895Z,92.30
2018-11-27T16:26:57.225Z,92.60
2018-11-27T16:30:00.509Z,92.50
2018-11-27T16:33:03.944Z,92.10
2018-11-27T16:36:07.272Z,92.00
2018-11-27T16:39:12.067Z,92.30
2018-11-27T16:42:15.409Z,92.70
2018-11-27T16:45:20.213Z,92.40
2018-11-27T16:48:23.562Z,92.70
2018-11-27T16:51:26.897Z,92.30
2018-11-27T16:54:30.205Z,92.40
2018-11-27T16:57:33.566Z,92.90
2018-11-27T17:00:36.862Z,92.10
2018-11-27T17:03:40.192Z,92.00
2018-11-27T17:06:43.511Z,92.30
2018-11-27T17:09:52.842Z,92.20
2018-11-27T17:12:57.637Z,92.50
2018-11-27T17:16:00.934Z,92.80
2018-11-27T17:19:04.340Z,92.90
2018-11-27T17:22:07.814Z,92.30
2018-11-27T17:25:11.191Z,92.20
2018-11-27T17:28:18.968Z,92.70
2018-11-27T17:31:22.284Z,92.70
2018-11-27T17:34:25.569Z,92.50
2018-11-27T17:37:28.880Z,92.70
2018-11-27T17:40:32.470Z,91.40
2018-11-27T17:43:35.961Z,93.00
2018-11-27T17:46:39.277Z,92.30
2018-11-27T17:49:42.666Z,92.10
2018-11-27T17:52:46.017Z,92.40
2018-11-27T17:55:49.393Z,91.90
2018-11-27T17:58:52.713Z,89.00
2018-11-27T18:01:56.026Z,90.90
2018-11-27T18:04:59.377Z,91.60
2018-11-27T18:08:02.773Z,91.60
2018-11-27T18:11:06.218Z,91.20
2018-11-27T18:14:09.541Z,90.70
2018-11-27T18:17:12.885Z,90.90
2018-11-27T18:20:16.280Z,91.40
2018-11-27T18:23:19.585Z,91.40
2018-11-27T18:26:22.942Z,91.70
2018-11-27T18:29:26.289Z,90.80
2018-11-27T18:32:29.626Z,91.10
2018-11-27T18:35:32.979Z,91.00
2018-11-27T18:38:36.284Z,91.00
2018-11-27T18:41:39.649Z,91.10
2018-11-27T18:44:42.944Z,91.30
2018-11-27T18:47:46.493Z,91.40
2018-11-27T18:50:49.879Z,91.20
2018-11-27T18:53:55.070Z,91.10
2018-11-27T18:56:56.541Z,91.20
2018-11-27T18:59:59.833Z,91.70
2018-11-27T19:03:03.249Z,90.70
2018-11-27T19:06:09.574Z,90.50
2018-11-27T19:09:12.980Z,90.40
2018-11-27T19:12:16.705Z,90.40
2018-11-27T19:15:27.341Z,90.20
2018-11-27T19:18:30.677Z,90.00
2018-11-27T19:21:33.984Z,90.10
2018-11-27T19:24:37.327Z,90.00
2018-11-27T19:27:40.890Z,90.20
2018-11-27T19:30:44.521Z,90.00
2018-11-27T19:33:47.821Z,90.10
2018-11-27T19:36:51.117Z,89.80
2018-11-27T19:39:54.433Z,89.40
2018-11-27T19:42:57.776Z,89.20
2018-11-27T19:46:01.117Z,90.10
2018-11-27T19:49:04.624Z,89.90
2018-11-27T19:52:07.969Z,89.00
2018-11-27T19:55:14.933Z,89.10
2018-11-27T19:58:18.260Z,89.20
2018-11-27T20:01:21.682Z,89.10
2018-11-27T20:04:25.028Z,88.10
2018-11-27T20:07:28.334Z,88.60
2018-11-27T20:10:31.676Z,88.20
2018-11-27T20:13:35.038Z,89.20
2018-11-27T20:16:38.428Z,89.50
2018-11-27T20:19:41.712Z,90.00
2018-11-27T20:22:45.103Z,90.10
2018-11-27T20:25:48.433Z,90.00
2018-11-27T20:28:51.745Z,89.90
2018-11-27T20:31:55.065Z,89.60
2018-11-27T20:34:58.413Z,89.50
2018-11-27T20:38:05.513Z,89.10
2018-11-27T20:41:08.825Z,89.70
2018-11-27T20:44:12.129Z,89.60
2018-11-27T20:47:15.449Z,89.00
2018-11-27T20:50:20.493Z,89.00
2018-11-27T20:53:23.842Z,89.00
2018-11-27T20:56:27.289Z,87.40
2018-11-27T20:59:30.655Z,88.80
2018-11-27T21:02:33.972Z,88.70
2018-11-27T21:05:37.373Z,88.20
2018-11-27T21:08:40.798Z,88.00
2018-11-27T21:11:44.137Z,88.40
2018-11-27T21:14:47.467Z,88.60
2018-11-27T21:17:50.775Z,88.10
2018-11-27T21:20:54.093Z,86.90
2018-11-27T21:23:57.402Z,86.60
2018-11-27T21:27:00.697Z,86.30
2018-11-27T21:30:08.660Z,85.50
2018-11-27T21:33:12.020Z,85.70
2018-11-27T21:36:15.540Z,86.70
2018-11-27T21:39:18.966Z,86.60
2018-11-27T21:42:22.282Z,86.70
2018-11-27T21:45:27.005Z,87.00
2018-11-27T21:48:30.312Z,87.00
2018-11-27T21:51:33.624Z,85.90
2018-11-27T21:54:36.932Z,87.10
2018-11-27T21:57:40.317Z,87.20
2018-11-27T22:00:43.645Z,86.00
2018-11-27T22:03:47.025Z,85.70
2018-11-27T22:06:50.365Z,85.90
2018-11-27T22:09:53.766Z,85.20
2018-11-27T22:12:58.073Z,85.80
2018-11-27T22:16:01.400Z,86.10
2018-11-27T22:19:04.817Z,85.30
2018-11-27T22:22:08.092Z,86.30
2018-11-27T22:25:11.966Z,86.40
2018-11-27T22:28:15.261Z,85.70
2018-11-27T22:31:18.525Z,85.80
2018-11-27T22:34:21.817Z,85.40
2018-11-27T22:37:25.150Z,85.50
2018-11-27T22:40:28.436Z,85.60
2018-11-27T22:43:31.747Z,85.80
2018-11-27T22:46:35.086Z,85.80
2018-11-27T22:49:38.399Z,86.00
2018-11-27T22:52:41.772Z,86.00
2018-11-27T22:55:45.045Z,85.60
2018-11-27T22:58:48.328Z,85.10
2018-11-27T23:01:51.612Z,85.50
2018-11-27T23:04:54.929Z,85.20
2018-11-27T23:07:58.336Z,85.20
2018-11-27T23:11:01.596Z,85.40
2018-11-27T23:14:05.139Z,85.90
2018-11-27T23:17:08.437Z,85.10
2018-11-27T23:20:14.547Z,85.20
2018-11-27T23:23:17.869Z,86.20
2018-11-27T23:26:21.153Z,85.40
2018-11-27T23:29:24.466Z,86.20
2018-11-27T23:32:27.749Z,87.60
2018-11-27T23:35:31.069Z,87.50
2018-11-27T23:38:34.344Z,86.70
2018-11-27T23:41:37.628Z,88.10
2018-11-27T23:44:40.922Z,87.20
2018-11-27T23:47:44.329Z,87.00
2018-11-27T23:50:47.610Z,86.30
2018-11-27T23:53:50.898Z,87.80
2018-11-27T23:56:54.166Z,88.20
2018-11-27T23:59:57.490Z,87.80
